CW0566 Weather Reports


time (UTC)temp
C
wind
direction
speed
KPH
gust
KPH
rain 1hr
cm
rain 24hr
cm
rain mn
cm
humidity
%
barometer
mb
20210518194017 26 157 6.4 14.5 0.00 0.00 0.00 35 1025.2
20210518193016 26 180 6.4 16.1 0.00 0.00 0.00 38 1025.5
20210518192016 26 157 4.8 11.3 0.00 0.00 0.00 36 1025.6
20210518191016 26 157 8.0 17.7 0.00 0.00 0.00 37 1025.8
20210518190016 26 180 4.8 14.5 0.00 0.00 0.00 38 1025.8
20210518185016 25 112 4.8 11.3 0.00 0.00 0.00 40 1025.8
20210518184016 25 157 6.4 16.1 0.00 0.00 0.00 40 1026.0
20210518183015 26 180 8.0 20.9 0.00 0.00 0.00 36 1026.0
20210518182015 26 157 4.8 12.9 0.00 0.00 0.00 40 1026.2
20210518181016 25 180 8.0 20.9 0.00 0.00 0.00 39 1026.3
20210518180015 25 157 3.2 8.0 0.00 0.00 0.00 43 1026.3
20210518175016 25 157 6.4 14.5 0.00 0.00 0.00 38 1026.4
20210518174015 25 112 4.8 14.5 0.00 0.00 0.00 44 1026.4
20210518173015 25 45 6.4 17.7 0.00 0.00 0.00 36 1026.6
20210518172015 25 135 6.4 17.7 0.00 0.00 0.00 43 1026.8
20210518171015 25 157 6.4 12.9 0.00 0.00 0.00 38 1027.0
20210518170015 25 157 3.2 11.3 0.00 0.00 0.00 40 1027.0
20210518165015 25 157 8.0 16.1 0.00 0.00 0.00 41 1027.1
20210518164015 24 135 6.4 16.1 0.00 0.00 0.00 40 1027.3
20210518163015 25 157 6.4 12.9 0.00 0.00 0.00 48 1027.4
20210518162016 24 157 9.7 19.3 0.00 0.00 0.00 46 1027.4
20210518161015 25 112 4.8 12.9 0.00 0.00 0.00 48 1027.5
20210518160016 23 157 4.8 14.5 0.00 0.00 0.00 48 1027.6
20210518155015 24 157 4.8 12.9 0.00 0.00 0.00 54 1027.7
20210518154015 23 157 6.4 17.7 0.00 0.00 0.00 48 1027.9
20210518153015 23 270 3.2 9.7 0.00 0.00 0.00 54 1027.8
20210518152015 23 135 4.8 8.0 0.00 0.00 0.00 53 1027.8
20210518151015 23 157 6.4 17.7 0.00 0.00 0.00 52 1027.9
20210518150015 23 135 4.8 11.3 0.00 0.00 0.00 55 1027.9
20210518145015 23 157 6.4 11.3 0.00 0.00 0.00 53 1027.8
20210518144015 23 135 3.2 6.4 0.00 0.00 0.00 57 1027.9
20210518143015 22 112 4.8 9.7 0.00 0.00 0.00 56 1028.1
20210518142015 22 135 3.2 11.3 0.00 0.00 0.00 56 1028.1
20210518141015 21 157 4.8 12.9 0.00 0.00 0.00 55 1028.1
20210518140017 21 157 4.8 9.7 0.00 0.00 0.00 59 1028.1
20210518135015 21 157 6.4 12.9 0.00 0.00 0.00 59 1028.1
20210518134015 21 157 4.8 8.0 0.00 0.00 0.00 60 1028.2
20210518133015 21 157 6.4 12.9 0.00 0.00 0.00 61 1028.0
20210518132017 20 180 3.2 6.4 0.00 0.00 0.00 63 1028.0
20210518131017 20 157 4.8 12.9 0.00 0.00 0.00 63 1028.0
20210518130017 20 157 3.2 9.7 0.00 0.00 0.00 66 1027.9
20210518125017 19 157 1.6 4.8 0.00 0.00 0.00 67 1027.9
20210518124017 18 135 3.2 6.4 0.00 0.00 0.00 72 1027.9
20210518123015 17 135 4.8 11.3 0.00 0.00 0.00 71 1027.9
20210518122017 17 180 3.2 6.4 0.00 0.00 0.00 74 1027.9
20210518121017 17 157 1.6 4.8 0.00 0.00 0.00 78 1027.7
20210518120017 16 157 3.2 9.7 0.00 0.00 0.00 79 1027.5
20210518115017 15 157 3.2 6.4 0.00 0.00 0.00 87 1027.3
20210518114017 12 0.0 1.6 0.00 0.00 0.00 94 1027.3
20210518113017 11 0.0 0.0 0.00 0.00 0.00 94 1027.2
20210518112017 10 0.0 0.0 0.00 0.00 0.00 94 1027.1
20210518111017 8 0.0 0.0 0.00 0.00 0.00 93 1027.0
20210518110017 7 0.0 0.0 0.00 0.00 0.00 92 1026.9
20210518105017 7 0.0 0.0 0.00 0.00 0.00 91 1026.7
20210518104017 6 0.0 0.0 0.00 0.00 0.00 91 1026.6
20210518103016 6 0.0 0.0 0.00 0.00 0.00 91 1026.6
20210518102016 6 0.0 0.0 0.00 0.00 0.00 90 1026.4
20210518101017 6 0.0 0.0 0.00 0.00 0.00 90 1026.4
20210518100017 6 0.0 0.0 0.00 0.00 0.00 90 1026.2
20210518095016 6 0.0 0.0 0.00 0.00 0.00 90 1026.3
20210518094017 6 0.0 0.0 0.00 0.00 0.00 90 1026.3
20210518093016 6 0.0 0.0 0.00 0.00 0.00 89 1026.3
20210518092016 7 0.0 0.0 0.00 0.00 0.00 89 1026.3
20210518091016 7 0.0 0.0 0.00 0.00 0.00 89 1026.3
20210518090017 7 0.0 0.0 0.00 0.00 0.00 89 1026.3
20210518085016 7 0.0 0.0 0.00 0.00 0.00 89 1026.3
20210518084016 7 0.0 0.0 0.00 0.00 0.00 89 1026.3
20210518083016 7 0.0 0.0 0.00 0.00 0.00 88 1026.2
20210518082016 7 0.0 0.0 0.00 0.00 0.00 88 1026.1
20210518081016 7 0.0 0.0 0.00 0.00 0.00 88 1026.0
20210518080016 7 0.0 0.0 0.00 0.00 0.00 87 1025.9
20210518075016 7 0.0 0.0 0.00 0.00 0.00 87 1025.7
20210518074016 7 0.0 0.0 0.00 0.00 0.00 87 1025.8
20210518073016 7 0.0 0.0 0.00 0.00 0.00 87 1025.8
20210518072016 8 0.0 0.0 0.00 0.00 0.00 87 1025.9
20210518071016 8 0.0 0.0 0.00 0.00 0.00 86 1025.7
20210518070016 8 0.0 0.0 0.00 0.00 0.00 86 1025.8
20210518065016 8 0.0 0.0 0.00 0.00 0.00 86 1025.7
20210518064016 8 0.0 0.0 0.00 0.00 0.00 86 1025.7
20210518063016 8 0.0 0.0 0.00 0.00 0.00 85 1025.7
20210518062016 8 0.0 0.0 0.00 0.00 0.00 85 1025.6
20210518061016 8 0.0 0.0 0.00 0.00 0.00 85 1025.6
20210518060016 9 0.0 0.0 0.00 0.00 0.00 84 1025.6
20210518055016 9 0.0 0.0 0.00 0.00 0.00 85 1025.7
20210518054016 9 0.0 0.0 0.00 0.00 0.00 84 1025.7
20210518053016 10 0.0 0.0 0.00 0.00 0.00 84 1025.8
20210518052016 10 0.0 0.0 0.00 0.00 0.00 84 1025.9
20210518051016 10 0.0 0.0 0.00 0.00 0.00 84 1025.9
20210518050016 10 0.0 0.0 0.00 0.00 0.00 84 1025.9
20210518045017 10 0.0 0.0 0.00 0.00 0.00 84 1026.0
20210518044016 10 0.0 0.0 0.00 0.00 0.00 83 1026.1
20210518043016 10 0.0 0.0 0.00 0.00 0.00 82 1026.1
20210518042016 11 0.0 0.0 0.00 0.00 0.00 80 1026.0
20210518041016 11 0.0 0.0 0.00 0.00 0.00 79 1026.0
20210518040016 11 0.0 0.0 0.00 0.00 0.00 79 1025.9
20210518035016 11 0.0 0.0 0.00 0.00 0.00 78 1025.9
20210518034016 11 0.0 0.0 0.00 0.00 0.00 77 1025.9
20210518033016 11 0.0 0.0 0.00 0.00 0.00 77 1025.8
20210518032016 12 0.0 0.0 0.00 0.00 0.00 76 1025.7
20210518031016 12 0.0 0.0 0.00 0.00 0.00 75 1025.6
20210518030016 12 0.0 0.0 0.00 0.00 0.00 75 1025.7
20210518025016 12 0.0 0.0 0.00 0.00 0.00 74 1025.8
20210518024016 12 0.0 0.0 0.00 0.00 0.00 72 1025.9
20210518023016 13 0.0 0.0 0.00 0.00 0.00 71 1025.8
20210518022016 13 0.0 0.0 0.00 0.00 0.00 69 1025.8
20210518021016 13 0.0 0.0 0.00 0.00 0.00 68 1025.8
20210518020016 14 0.0 0.0 0.00 0.00 0.00 67 1025.9
20210518015016 15 0.0 0.0 0.00 0.00 0.00 66 1025.7
20210518014018 15 0.0 0.0 0.00 0.00 0.00 65 1025.7
20210518013016 15 0.0 0.0 0.00 0.00 0.00 63 1025.6
20210518012016 16 0.0 0.0 0.00 0.00 0.00 61 1025.5
20210518011016 16 0.0 0.0 0.00 0.00 0.00 61 1025.4
20210518010016 16 0.0 1.6 0.00 0.00 0.00 59 1025.4
20210518005016 17 0.0 1.6 0.00 0.00 0.00 58 1025.2
20210518004016 17 112 1.6 4.8 0.00 0.00 0.00 57 1025.1
20210518003016 17 0.0 6.4 0.00 0.00 0.00 56 1024.9
20210518002016 18 0.0 3.2 0.00 0.00 0.00 55 1024.8
20210518001016 18 0.0 0.0 0.00 0.00 0.00 54 1024.8
20210518000016 18 0.0 3.2 0.00 0.00 0.00 52 1024.7
20210517235016 19 135 3.2 9.7 0.00 0.00 0.00 50 1024.7
20210517234016 20 90 1.6 4.8 0.00 0.00 0.00 50 1024.6
20210517233016 20 157 1.6 4.8 0.00 0.00 0.00 49 1024.4
20210517232016 21 112 1.6 8.0 0.00 0.00 0.00 47 1024.4
20210517231016 21 90 4.8 14.5 0.00 0.00 0.00 45 1024.3
20210517230016 22 157 3.2 8.0 0.00 0.00 0.00 43 1024.4
20210517225016 22 157 4.8 9.7 0.00 0.00 0.00 41 1024.4
20210517224016 22 157 4.8 9.7 0.00 0.00 0.00 40 1024.2
20210517223016 22 157 6.4 12.9 0.00 0.00 0.00 40 1024.2
20210517222017 23 157 3.2 8.0 0.00 0.00 0.00 35 1024.2
20210517221016 23 157 4.8 11.3 0.00 0.00 0.00 32 1024.0
20210517220016 23 157 6.4 11.3 0.00 0.00 0.00 31 1024.2
20210517215016 23 157 6.4 17.7 0.00 0.00 0.00 33 1024.1
20210517214016 23 157 6.4 11.3 0.00 0.00 0.00 32 1024.1
20210517213016 23 157 6.4 14.5 0.00 0.00 0.00 36 1024.2
20210517212016 23 157 3.2 9.7 0.00 0.00 0.00 36 1024.1
20210517211016 24 157 6.4 14.5 0.00 0.00 0.00 35 1024.2
20210517210016 24 337 3.2 12.9 0.00 0.00 0.00 35 1024.0
20210517205016 24 157 6.4 17.7 0.00 0.00 0.00 39 1024.0
20210517204016 24 157 6.4 11.3 0.00 0.00 0.00 40 1023.9
20210517203016 24 157 6.4 14.5 0.00 0.00 0.00 38 1023.9
20210517202016 24 135 1.6 4.8 0.00 0.00 0.00 44 1023.9
20210517201016 24 112 4.8 11.3 0.00 0.00 0.00 41 1023.9
20210517200015 23 157 1.6 6.4 0.00 0.00 0.00 42 1023.9
20210517195015 22 180 1.6 3.2 0.00 0.00 0.00 44 1024.1